sensor_id;sensor_type;location;lat;lon;timestamp;pressure;altitude;pressure_sealevel;temperature;humidity
72038;BME280;59900;50.788;12.904;2023-12-04T00:00:04;97859.91;;;-4.49;92.87
72038;BME280;59900;50.788;12.904;2023-12-04T00:02:30;97851.41;;;-4.49;92.64
72038;BME280;59900;50.788;12.904;2023-12-04T00:04:55;97843.06;;;-4.53;92.41
72038;BME280;59900;50.788;12.904;2023-12-04T00:07:20;97840.69;;;-4.56;92.54
72038;BME280;59900;50.788;12.904;2023-12-04T00:09:46;97832.19;;;-4.57;92.13
72038;BME280;59900;50.788;12.904;2023-12-04T00:12:11;97834.09;;;-4.60;91.61
72038;BME280;59900;50.788;12.904;2023-12-04T00:14:36;97834.28;;;-4.63;92.45
72038;BME280;59900;50.788;12.904;2023-12-04T00:17:02;97830.19;;;-4.66;92.37
72038;BME280;59900;50.788;12.904;2023-12-04T00:19:27;97832.09;;;-4.69;92.47
72038;BME280;59900;50.788;12.904;2023-12-04T00:21:52;97824.72;;;-4.74;92.64
72038;BME280;59900;50.788;12.904;2023-12-04T00:24:18;97828.94;;;-4.73;92.81
72038;BME280;59900;50.788;12.904;2023-12-04T00:26:43;97833.03;;;-4.70;92.57
72038;BME280;59900;50.788;12.904;2023-12-04T00:29:08;97836.50;;;-4.71;92.74
72038;BME280;59900;50.788;12.904;2023-12-04T00:31:33;97835.06;;;-4.75;92.39
72038;BME280;59900;50.788;12.904;2023-12-04T00:33:59;97840.19;;;-4.75;92.37
72038;BME280;59900;50.788;12.904;2023-12-04T00:36:24;97839.56;;;-4.79;92.29
72038;BME280;59900;50.788;12.904;2023-12-04T00:38:49;97832.78;;;-4.80;92.22
72038;BME280;59900;50.788;12.904;2023-12-04T00:41:15;97834.44;;;-4.79;92.31
72038;BME280;59900;50.788;12.904;2023-12-04T00:43:40;97831.03;;;-4.79;92.22
72038;BME280;59900;50.788;12.904;2023-12-04T00:46:05;97838.91;;;-4.82;92.20
72038;BME280;59900;50.788;12.904;2023-12-04T00:48:31;97844.13;;;-4.84;92.14
72038;BME280;59900;50.788;12.904;2023-12-04T00:50:57;97846.63;;;-4.82;92.33
72038;BME280;59900;50.788;12.904;2023-12-04T00:53:22;97842.38;;;-4.83;92.28
72038;BME280;59900;50.788;12.904;2023-12-04T00:55:48;97849.19;;;-4.82;92.21
72038;BME280;59900;50.788;12.904;2023-12-04T00:58:13;97842.31;;;-4.82;92.24
72038;BME280;59900;50.788;12.904;2023-12-04T01:00:38;97838.09;;;-4.83;92.05
72038;BME280;59900;50.788;12.904;2023-12-04T01:03:03;97840.75;;;-4.84;92.25
72038;BME280;59900;50.788;12.904;2023-12-04T01:05:29;97831.41;;;-4.85;91.96
72038;BME280;59900;50.788;12.904;2023-12-04T01:07:54;97831.69;;;-4.90;91.49
72038;BME280;59900;50.788;12.904;2023-12-04T01:10:19;97830.06;;;-4.91;91.40
72038;BME280;59900;50.788;12.904;2023-12-04T01:12:45;97831.59;;;-4.88;91.69
72038;BME280;59900;50.788;12.904;2023-12-04T01:15:10;97831.59;;;-4.88;91.69
72038;BME280;59900;50.788;12.904;2023-12-04T01:17:35;97821.53;;;-4.91;91.41
72038;BME280;59900;50.788;12.904;2023-12-04T01:20:00;97824.81;;;-4.89;91.52
72038;BME280;59900;50.788;12.904;2023-12-04T01:22:26;97821.34;;;-4.88;91.82
72038;BME280;59900;50.788;12.904;2023-12-04T01:24:51;97825.56;;;-4.87;92.07
72038;BME280;59900;50.788;12.904;2023-12-04T01:27:16;97820.63;;;-4.90;92.32
72038;BME280;59900;50.788;12.904;2023-12-04T01:29:41;97820.00;;;-4.94;91.89
72038;BME280;59900;50.788;12.904;2023-12-04T01:32:07;97815.78;;;-4.95;92.31
72038;BME280;59900;50.788;12.904;2023-12-04T01:34:32;97805.72;;;-4.98;92.01
72038;BME280;59900;50.788;12.904;2023-12-04T01:36:57;97806.72;;;-5.00;92.72
72038;BME280;59900;50.788;12.904;2023-12-04T01:39:22;97809.28;;;-5.00;92.35
72038;BME280;59900;50.788;12.904;2023-12-04T01:41:48;97810.94;;;-4.99;92.58
72038;BME280;59900;50.788;12.904;2023-12-04T01:44:13;97799.94;;;-5.01;92.97
72038;BME280;59900;50.788;12.904;2023-12-04T01:46:38;97798.84;;;-4.97;92.80
72038;BME280;59900;50.788;12.904;2023-12-04T01:49:06;97806.44;;;-4.96;92.89
72038;BME280;59900;50.788;12.904;2023-12-04T01:51:32;97797.00;;;-4.95;92.45
72038;BME280;59900;50.788;12.904;2023-12-04T01:53:59;97789.25;;;-4.94;92.32
72038;BME280;59900;50.788;12.904;2023-12-04T01:56:25;97781.44;;;-4.92;92.61
72038;BME280;59900;50.788;12.904;2023-12-04T01:58:50;97785.66;;;-4.91;92.20
72038;BME280;59900;50.788;12.904;2023-12-04T02:01:17;97777.97;;;-4.91;92.20
72038;BME280;59900;50.788;12.904;2023-12-04T02:03:44;97777.97;;;-4.91;92.31
72038;BME280;59900;50.788;12.904;2023-12-04T02:06:11;97770.09;;;-4.88;92.07
72038;BME280;59900;50.788;12.904;2023-12-04T02:08:37;97773.56;;;-4.89;92.39
72038;BME280;59900;50.788;12.904;2023-12-04T02:11:02;97766.91;;;-4.92;92.28
72038;BME280;59900;50.788;12.904;2023-12-04T02:13:28;97757.56;;;-4.93;92.03
72038;BME280;59900;50.788;12.904;2023-12-04T02:15:53;97763.63;;;-4.94;92.43
72038;BME280;59900;50.788;12.904;2023-12-04T02:18:19;97755.19;;;-4.96;92.53
72038;BME280;59900;50.788;12.904;2023-12-04T02:20:45;97753.56;;;-4.97;92.75
72038;BME280;59900;50.788;12.904;2023-12-04T02:23:10;97747.59;;;-4.97;92.55
72038;BME280;59900;50.788;12.904;2023-12-04T02:25:36;97741.66;;;-4.98;92.52
72038;BME280;59900;50.788;12.904;2023-12-04T02:28:05;97746.78;;;-4.98;92.45
72038;BME280;59900;50.788;12.904;2023-12-04T02:30:31;97737.25;;;-4.96;92.59
72038;BME280;59900;50.788;12.904;2023-12-04T02:32:58;97729.03;;;-5.01;92.13
72038;BME280;59900;50.788;12.904;2023-12-04T02:35:27;97723.00;;;-5.00;91.79
72038;BME280;59900;50.788;12.904;2023-12-04T02:37:55;97714.38;;;-4.99;92.32
72038;BME280;59900;50.788;12.904;2023-12-04T02:40:20;97714.38;;;-4.99;92.15
72038;BME280;59900;50.788;12.904;2023-12-04T02:42:46;97715.31;;;-5.00;92.01
72038;BME280;59900;50.788;12.904;2023-12-04T02:45:11;97711.19;;;-5.02;92.51
72038;BME280;59900;50.788;12.904;2023-12-04T02:47:36;97719.72;;;-5.02;91.98
72038;BME280;59900;50.788;12.904;2023-12-04T02:50:02;97716.50;;;-5.05;92.55
72038;BME280;59900;50.788;12.904;2023-12-04T02:52:27;97718.31;;;-5.07;92.26
72038;BME280;59900;50.788;12.904;2023-12-04T02:54:52;97700.50;;;-5.09;92.28
72038;BME280;59900;50.788;12.904;2023-12-04T02:57:18;97700.50;;;-5.09;91.80
72038;BME280;59900;50.788;12.904;2023-12-04T02:59:43;97705.63;;;-5.09;92.27
72038;BME280;59900;50.788;12.904;2023-12-04T03:02:08;97701.34;;;-5.08;92.14
72038;BME280;59900;50.788;12.904;2023-12-04T03:04:34;97699.78;;;-5.11;91.96
72038;BME280;59900;50.788;12.904;2023-12-04T03:07:00;97694.56;;;-5.10;91.86
72038;BME280;59900;50.788;12.904;2023-12-04T03:09:25;97689.63;;;-5.13;91.70
72038;BME280;59900;50.788;12.904;2023-12-04T03:11:50;97689.53;;;-5.11;91.92
72038;BME280;59900;50.788;12.904;2023-12-04T03:14:16;97686.22;;;-5.13;91.64
72038;BME280;59900;50.788;12.904;2023-12-04T03:16:42;97684.41;;;-5.11;92.05
72038;BME280;59900;50.788;12.904;2023-12-04T03:19:07;97680.19;;;-5.12;91.52
72038;BME280;59900;50.788;12.904;2023-12-04T03:21:32;97682.47;;;-5.07;91.49
72038;BME280;59900;50.788;12.904;2023-12-04T03:23:57;97684.13;;;-5.06;91.66
72038;BME280;59900;50.788;12.904;2023-12-04T03:26:23;97684.94;;;-5.06;91.50
72038;BME280;59900;50.788;12.904;2023-12-04T03:28:48;97690.91;;;-5.05;91.86
72038;BME280;59900;50.788;12.904;2023-12-04T03:31:13;97682.38;;;-5.06;92.04
72038;BME280;59900;50.788;12.904;2023-12-04T03:33:39;97680.66;;;-5.05;92.33
72038;BME280;59900;50.788;12.904;2023-12-04T03:36:04;97682.28;;;-5.04;92.09
72038;BME280;59900;50.788;12.904;2023-12-04T03:38:30;97683.00;;;-5.02;92.31
72038;BME280;59900;50.788;12.904;2023-12-04T03:40:55;97679.63;;;-5.03;92.09
72038;BME280;59900;50.788;12.904;2023-12-04T03:43:20;97675.34;;;-5.02;91.74
72038;BME280;59900;50.788;12.904;2023-12-04T03:45:45;97672.78;;;-5.02;91.69
72038;BME280;59900;50.788;12.904;2023-12-04T03:48:11;97671.03;;;-5.02;91.55
72038;BME280;59900;50.788;12.904;2023-12-04T03:50:36;97678.59;;;-5.00;91.39
72038;BME280;59900;50.788;12.904;2023-12-04T03:53:01;97668.56;;;-5.03;91.24
72038;BME280;59900;50.788;12.904;2023-12-04T03:55:27;97665.91;;;-5.02;91.49
72038;BME280;59900;50.788;12.904;2023-12-04T03:57:53;97662.31;;;-4.99;91.31
72038;BME280;59900;50.788;12.904;2023-12-04T04:00:19;97662.22;;;-4.98;91.25
72038;BME280;59900;50.788;12.904;2023-12-04T04:02:44;97655.34;;;-4.97;91.84
72038;BME280;59900;50.788;12.904;2023-12-04T04:05:09;97650.22;;;-4.97;91.80
72038;BME280;59900;50.788;12.904;2023-12-04T04:07:35;97653.44;;;-4.94;91.63
72038;BME280;59900;50.788;12.904;2023-12-04T04:10:00;97653.22;;;-4.91;91.77
72038;BME280;59900;50.788;12.904;2023-12-04T04:12:27;97650.56;;;-4.89;91.69
72038;BME280;59900;50.788;12.904;2023-12-04T04:14:52;97654.66;;;-4.87;91.26
72038;BME280;59900;50.788;12.904;2023-12-04T04:17:17;97653.66;;;-4.84;91.51
72038;BME280;59900;50.788;12.904;2023-12-04T04:19:42;97655.91;;;-4.80;92.09
72038;BME280;59900;50.788;12.904;2023-12-04T04:22:08;97649.78;;;-4.77;92.25
72038;BME280;59900;50.788;12.904;2023-12-04T04:24:34;97649.56;;;-4.74;91.91
72038;BME280;59900;50.788;12.904;2023-12-04T04:26:59;97644.16;;;-4.70;92.14
72038;BME280;59900;50.788;12.904;2023-12-04T04:29:24;97646.72;;;-4.70;92.08
72038;BME280;59900;50.788;12.904;2023-12-04T04:31:49;97642.31;;;-4.68;92.07
72038;BME280;59900;50.788;12.904;2023-12-04T04:34:15;97638.72;;;-4.65;91.77
72038;BME280;59900;50.788;12.904;2023-12-04T04:36:40;97629.09;;;-4.62;91.67
72038;BME280;59900;50.788;12.904;2023-12-04T04:39:05;97633.91;;;-4.57;91.51
72038;BME280;59900;50.788;12.904;2023-12-04T04:41:31;97634.34;;;-4.50;91.92
72038;BME280;59900;50.788;12.904;2023-12-04T04:43:56;97631.38;;;-4.44;91.38
72038;BME280;59900;50.788;12.904;2023-12-04T04:46:22;97628.50;;;-4.40;91.27
72038;BME280;59900;50.788;12.904;2023-12-04T04:48:47;97623.78;;;-4.33;91.18
72038;BME280;59900;50.788;12.904;2023-12-04T04:51:12;97622.66;;;-4.29;91.28
72038;BME280;59900;50.788;12.904;2023-12-04T04:53:38;97607.78;;;-4.24;91.26
72038;BME280;59900;50.788;12.904;2023-12-04T04:56:03;97609.22;;;-4.20;90.60
72038;BME280;59900;50.788;12.904;2023-12-04T04:58:29;97609.94;;;-4.18;90.24
72038;BME280;59900;50.788;12.904;2023-12-04T05:00:54;97606.25;;;-4.14;90.03
72038;BME280;59900;50.788;12.904;2023-12-04T05:03:19;97595.25;;;-4.16;90.49
72038;BME280;59900;50.788;12.904;2023-12-04T05:05:45;97587.34;;;-4.13;89.92
72038;BME280;59900;50.788;12.904;2023-12-04T05:08:10;97587.13;;;-4.10;89.50
72038;BME280;59900;50.788;12.904;2023-12-04T05:10:35;97584.47;;;-4.09;89.90
72038;BME280;59900;50.788;12.904;2023-12-04T05:13:00;97584.38;;;-4.07;89.30
72038;BME280;59900;50.788;12.904;2023-12-04T05:15:26;97579.16;;;-4.06;89.11
72038;BME280;59900;50.788;12.904;2023-12-04T05:17:51;97572.28;;;-4.05;89.19
72038;BME280;59900;50.788;12.904;2023-12-04T05:20:16;97567.34;;;-4.08;89.05
72038;BME280;59900;50.788;12.904;2023-12-04T05:22:42;97562.44;;;-4.11;87.83
72038;BME280;59900;50.788;12.904;2023-12-04T05:25:07;97550.50;;;-4.12;88.72
72038;BME280;59900;50.788;12.904;2023-12-04T05:27:32;97554.81;;;-4.13;88.73
72038;BME280;59900;50.788;12.904;2023-12-04T05:29:58;97545.78;;;-4.18;88.37
72038;BME280;59900;50.788;12.904;2023-12-04T05:32:23;97545.50;;;-4.26;87.97
72038;BME280;59900;50.788;12.904;2023-12-04T05:34:48;97541.41;;;-4.29;88.46
72038;BME280;59900;50.788;12.904;2023-12-04T05:37:14;97545.50;;;-4.26;88.51
72038;BME280;59900;50.788;12.904;2023-12-04T05:39:39;97541.19;;;-4.26;88.33
72038;BME280;59900;50.788;12.904;2023-12-04T05:42:04;97540.25;;;-4.25;88.25
72038;BME280;59900;50.788;12.904;2023-12-04T05:44:30;97539.22;;;-4.22;87.64
72038;BME280;59900;50.788;12.904;2023-12-04T05:46:56;97538.81;;;-4.16;87.42
72038;BME280;59900;50.788;12.904;2023-12-04T05:49:22;97538.38;;;-4.10;87.19
72038;BME280;59900;50.788;12.904;2023-12-04T05:51:47;97537.88;;;-4.03;86.80
72038;BME280;59900;50.788;12.904;2023-12-04T05:54:12;97533.94;;;-3.96;86.41
72038;BME280;59900;50.788;12.904;2023-12-04T05:56:38;97528.16;;;-3.86;85.58
72038;BME280;59900;50.788;12.904;2023-12-04T05:59:03;97532.66;;;-3.77;84.91
72038;BME280;59900;50.788;12.904;2023-12-04T06:01:29;97526.88;;;-3.68;84.89
72038;BME280;59900;50.788;12.904;2023-12-04T06:03:54;97534.53;;;-3.56;84.52
72038;BME280;59900;50.788;12.904;2023-12-04T06:06:19;97517.88;;;-3.50;83.57
72038;BME280;59900;50.788;12.904;2023-12-04T06:08:45;97514.53;;;-3.40;82.15
72038;BME280;59900;50.788;12.904;2023-12-04T06:11:11;97516.66;;;-3.33;82.03
72038;BME280;59900;50.788;12.904;2023-12-04T06:13:37;97511.19;;;-3.29;82.07
72038;BME280;59900;50.788;12.904;2023-12-04T06:16:03;97513.44;;;-3.24;82.48
72038;BME280;59900;50.788;12.904;2023-12-04T06:18:28;97502.00;;;-3.20;82.44
72038;BME280;59900;50.788;12.904;2023-12-04T06:20:53;97500.22;;;-3.20;81.65
72038;BME280;59900;50.788;12.904;2023-12-04T06:23:18;97499.44;;;-3.20;81.71
72038;BME280;59900;50.788;12.904;2023-12-04T06:25:44;97494.16;;;-3.19;81.87
72038;BME280;59900;50.788;12.904;2023-12-04T06:28:10;97496.88;;;-3.20;81.92
72038;BME280;59900;50.788;12.904;2023-12-04T06:30:35;97496.25;;;-3.24;81.72
72038;BME280;59900;50.788;12.904;2023-12-04T06:33:01;97496.25;;;-3.24;81.63
72038;BME280;59900;50.788;12.904;2023-12-04T06:35:26;97488.44;;;-3.22;82.01
72038;BME280;59900;50.788;12.904;2023-12-04T06:37:53;97495.22;;;-3.21;81.43
72038;BME280;59900;50.788;12.904;2023-12-04T06:40:19;97499.31;;;-3.19;81.40
72038;BME280;59900;50.788;12.904;2023-12-04T06:42:45;97497.34;;;-3.15;81.28
72038;BME280;59900;50.788;12.904;2023-12-04T06:45:10;97499.00;;;-3.14;81.10
72038;BME280;59900;50.788;12.904;2023-12-04T06:47:36;97487.75;;;-3.13;80.61
72038;BME280;59900;50.788;12.904;2023-12-04T06:50:02;97500.50;;;-3.12;80.91
72038;BME280;59900;50.788;12.904;2023-12-04T06:52:27;97499.34;;;-3.08;80.80
72038;BME280;59900;50.788;12.904;2023-12-04T06:54:52;97481.84;;;-3.03;80.72
72038;BME280;59900;50.788;12.904;2023-12-04T06:57:18;97488.50;;;-3.00;79.60
72038;BME280;59900;50.788;12.904;2023-12-04T06:59:43;97480.34;;;-2.94;79.31
72038;BME280;59900;50.788;12.904;2023-12-04T07:02:08;97481.63;;;-2.89;78.84
72038;BME280;59900;50.788;12.904;2023-12-04T07:04:34;97489.00;;;-2.84;78.29
72038;BME280;59900;50.788;12.904;2023-12-04T07:06:59;97475.69;;;-2.78;78.05
72038;BME280;59900;50.788;12.904;2023-12-04T07:09:30;97480.50;;;-2.73;77.85
72038;BME280;59900;50.788;12.904;2023-12-04T07:11:55;97469.03;;;-2.69;77.74
72038;BME280;59900;50.788;12.904;2023-12-04T07:14:20;97478.25;;;-2.67;77.22
72038;BME280;59900;50.788;12.904;2023-12-04T07:16:46;97477.00;;;-2.61;77.04
72038;BME280;59900;50.788;12.904;2023-12-04T07:19:11;97465.53;;;-2.57;77.39
72038;BME280;59900;50.788;12.904;2023-12-04T07:21:37;97456.88;;;-2.56;76.66
72038;BME280;59900;50.788;12.904;2023-12-04T07:24:02;97468.31;;;-2.49;76.68
72038;BME280;59900;50.788;12.904;2023-12-04T07:26:27;97459.69;;;-2.48;76.00
72038;BME280;59900;50.788;12.904;2023-12-04T07:28:53;97458.41;;;-2.43;76.38
72038;BME280;59900;50.788;12.904;2023-12-04T07:31:18;97455.72;;;-2.41;76.42
72038;BME280;59900;50.788;12.904;2023-12-04T07:33:44;97457.22;;;-2.39;76.41
72038;BME280;59900;50.788;12.904;2023-12-04T07:36:09;97465.66;;;-2.37;76.12
72038;BME280;59900;50.788;12.904;2023-12-04T07:38:34;97460.25;;;-2.34;76.16
72038;BME280;59900;50.788;12.904;2023-12-04T07:40:59;97450.66;;;-2.32;76.84
72038;BME280;59900;50.788;12.904;2023-12-04T07:43:25;97445.50;;;-2.32;75.56
72038;BME280;59900;50.788;12.904;2023-12-04T07:45:50;97448.09;;;-2.32;75.46
72038;BME280;59900;50.788;12.904;2023-12-04T07:48:15;97448.81;;;-2.30;75.78
72038;BME280;59900;50.788;12.904;2023-12-04T07:50:42;97449.25;;;-2.24;75.95
72038;BME280;59900;50.788;12.904;2023-12-04T07:53:07;97453.47;;;-2.23;75.95
72038;BME280;59900;50.788;12.904;2023-12-04T07:55:37;97456.50;;;-2.18;75.69
72038;BME280;59900;50.788;12.904;2023-12-04T07:58:02;97460.50;;;-2.14;76.35
72038;BME280;59900;50.788;12.904;2023-12-04T08:00:27;97450.75;;;-2.11;75.40
72038;BME280;59900;50.788;12.904;2023-12-04T08:02:52;97465.84;;;-2.06;75.42
72038;BME280;59900;50.788;12.904;2023-12-04T08:05:18;97464.66;;;-2.02;75.09
72038;BME280;59900;50.788;12.904;2023-12-04T08:07:43;97462.66;;;-1.99;74.57
72038;BME280;59900;50.788;12.904;2023-12-04T08:10:09;97447.81;;;-1.95;74.88
72038;BME280;59900;50.788;12.904;2023-12-04T08:12:35;97450.28;;;-1.94;74.91
72038;BME280;59900;50.788;12.904;2023-12-04T08:15:00;97458.69;;;-1.92;75.39
72038;BME280;59900;50.788;12.904;2023-12-04T08:17:26;97444.84;;;-1.91;74.87
72038;BME280;59900;50.788;12.904;2023-12-04T08:19:52;97443.94;;;-1.90;75.42
72038;BME280;59900;50.788;12.904;2023-12-04T08:22:17;97441.94;;;-1.86;75.21
72038;BME280;59900;50.788;12.904;2023-12-04T08:24:42;97440.19;;;-1.86;75.07
72038;BME280;59900;50.788;12.904;2023-12-04T08:27:08;97442.75;;;-1.86;74.49
72038;BME280;59900;50.788;12.904;2023-12-04T08:29:33;97439.13;;;-1.83;74.51
72038;BME280;59900;50.788;12.904;2023-12-04T08:31:58;97434.66;;;-1.81;75.21
72038;BME280;59900;50.788;12.904;2023-12-04T08:34:23;97435.09;;;-1.76;75.02
72038;BME280;59900;50.788;12.904;2023-12-04T08:36:48;97435.91;;;-1.76;74.55
72038;BME280;59900;50.788;12.904;2023-12-04T08:39:14;97432.28;;;-1.73;74.28
72038;BME280;59900;50.788;12.904;2023-12-04T08:41:39;97437.19;;;-1.70;74.08
72038;BME280;59900;50.788;12.904;2023-12-04T08:44:04;97432.75;;;-1.68;74.20
72038;BME280;59900;50.788;12.904;2023-12-04T08:46:29;97432.25;;;-1.62;73.61
72038;BME280;59900;50.788;12.904;2023-12-04T08:48:55;97421.00;;;-1.61;73.86
72038;BME280;59900;50.788;12.904;2023-12-04T08:51:20;97432.94;;;-1.60;73.31
72038;BME280;59900;50.788;12.904;2023-12-04T08:53:45;97434.22;;;-1.54;72.94
72038;BME280;59900;50.788;12.904;2023-12-04T08:56:11;97432.78;;;-1.47;73.66
72038;BME280;59900;50.788;12.904;2023-12-04T08:58:37;97442.84;;;-1.44;73.35
72038;BME280;59900;50.788;12.904;2023-12-04T09:01:02;97432.84;;;-1.38;72.54
72038;BME280;59900;50.788;12.904;2023-12-04T09:03:28;97435.06;;;-1.33;72.34
72038;BME280;59900;50.788;12.904;2023-12-04T09:05:54;97441.72;;;-1.31;71.87
72038;BME280;59900;50.788;12.904;2023-12-04T09:08:22;97431.16;;;-1.28;71.51
72038;BME280;59900;50.788;12.904;2023-12-04T09:10:47;97426.56;;;-1.24;71.41
72038;BME280;59900;50.788;12.904;2023-12-04T09:13:14;97422.34;;;-1.25;71.50
72038;BME280;59900;50.788;12.904;2023-12-04T09:15:40;97423.84;;;-1.23;70.43
72038;BME280;59900;50.788;12.904;2023-12-04T09:18:05;97424.56;;;-1.21;71.31
72038;BME280;59900;50.788;12.904;2023-12-04T09:20:30;97431.22;;;-1.18;71.03
72038;BME280;59900;50.788;12.904;2023-12-04T09:22:55;97431.53;;;-1.12;70.30
72038;BME280;59900;50.788;12.904;2023-12-04T09:25:20;97429.25;;;-1.05;70.57
72038;BME280;59900;50.788;12.904;2023-12-04T09:27:46;97424.41;;;-0.98;69.97
72038;BME280;59900;50.788;12.904;2023-12-04T09:30:11;97417.94;;;-0.93;69.92
72038;BME280;59900;50.788;12.904;2023-12-04T09:32:37;97427.06;;;-0.89;68.96
72038;BME280;59900;50.788;12.904;2023-12-04T09:35:02;97421.25;;;-0.81;68.52
72038;BME280;59900;50.788;12.904;2023-12-04T09:37:27;97424.97;;;-0.74;69.53
72038;BME280;59900;50.788;12.904;2023-12-04T09:39:52;97423.88;;;-0.72;68.83
72038;BME280;59900;50.788;12.904;2023-12-04T09:42:19;97416.72;;;-0.68;68.74
72038;BME280;59900;50.788;12.904;2023-12-04T09:44:47;97414.00;;;-0.67;67.45
72038;BME280;59900;50.788;12.904;2023-12-04T09:47:16;97416.88;;;-0.60;68.58
72038;BME280;59900;50.788;12.904;2023-12-04T09:49:43;97419.34;;;-0.49;68.58
72038;BME280;59900;50.788;12.904;2023-12-04T09:52:10;97423.06;;;-0.42;68.69
72038;BME280;59900;50.788;12.904;2023-12-04T09:54:35;97414.66;;;-0.34;67.82
72038;BME280;59900;50.788;12.904;2023-12-04T09:57:03;97426.22;;;-0.29;67.74
72038;BME280;59900;50.788;12.904;2023-12-04T09:59:29;97413.91;;;-0.16;67.35
72038;BME280;59900;50.788;12.904;2023-12-04T10:01:55;97417.72;;;-0.10;67.47
72038;BME280;59900;50.788;12.904;2023-12-04T10:04:21;97413.53;;;-0.02;67.47
72038;BME280;59900;50.788;12.904;2023-12-04T10:06:49;97409.19;;;0.09;67.26
72038;BME280;59900;50.788;12.904;2023-12-04T10:09:16;97408.75;;;0.04;65.69
72038;BME280;59900;50.788;12.904;2023-12-04T10:11:44;97398.16;;;-0.03;65.37
72038;BME280;59900;50.788;12.904;2023-12-04T10:14:18;97401.28;;;-0.09;66.05
72038;BME280;59900;50.788;12.904;2023-12-04T10:16:44;97393.78;;;-0.03;66.41
72038;BME280;59900;50.788;12.904;2023-12-04T10:19:16;97387.00;;;-0.04;64.42
72038;BME280;59900;50.788;12.904;2023-12-04T10:21:44;97385.38;;;-0.05;65.19
72038;BME280;59900;50.788;12.904;2023-12-04T10:24:09;97386.47;;;-0.07;65.43
72038;BME280;59900;50.788;12.904;2023-12-04T10:26:35;97376.81;;;-0.05;65.53
72038;BME280;59900;50.788;12.904;2023-12-04T10:29:01;97382.41;;;0.00;65.01
72038;BME280;59900;50.788;12.904;2023-12-04T10:31:34;97374.66;;;0.00;65.13
72038;BME280;59900;50.788;12.904;2023-12-04T10:34:00;97364.16;;;0.02;63.98
72038;BME280;59900;50.788;12.904;2023-12-04T10:36:25;97355.75;;;-0.01;64.56
72038;BME280;59900;50.788;12.904;2023-12-04T10:38:59;97359.94;;;0.00;64.45
72038;BME280;59900;50.788;12.904;2023-12-04T10:41:26;97357.91;;;0.04;64.12
72038;BME280;59900;50.788;12.904;2023-12-04T10:43:51;97348.13;;;-0.02;63.63
72038;BME280;59900;50.788;12.904;2023-12-04T10:46:17;97351.25;;;0.02;65.50
72038;BME280;59900;50.788;12.904;2023-12-04T10:48:44;97338.06;;;0.05;63.99
72038;BME280;59900;50.788;12.904;2023-12-04T10:51:11;97334.13;;;0.00;62.59
72038;BME280;59900;50.788;12.904;2023-12-04T10:53:37;97320.09;;;0.03;63.70
72038;BME280;59900;50.788;12.904;2023-12-04T10:56:02;97320.13;;;0.13;63.98
72038;BME280;59900;50.788;12.904;2023-12-04T10:58:28;97321.50;;;0.17;63.87
72038;BME280;59900;50.788;12.904;2023-12-04T11:00:55;97307.19;;;0.22;64.61
72038;BME280;59900;50.788;12.904;2023-12-04T11:03:28;97306.78;;;0.27;64.11
72038;BME280;59900;50.788;12.904;2023-12-04T11:05:59;97303.91;;;0.30;64.27
72038;BME280;59900;50.788;12.904;2023-12-04T11:08:28;97304.34;;;0.35;64.29
72038;BME280;59900;50.788;12.904;2023-12-04T11:11:15;97295.50;;;0.37;64.06
72038;BME280;59900;50.788;12.904;2023-12-04T11:13:49;97289.88;;;0.42;63.98
72038;BME280;59900;50.788;12.904;2023-12-04T11:19:00;97287.34;;;0.32;62.88
72038;BME280;59900;50.788;12.904;2023-12-04T11:21:28;97281.47;;;0.30;63.56
72038;BME280;59900;50.788;12.904;2023-12-04T11:23:55;97277.69;;;0.34;62.63
72038;BME280;59900;50.788;12.904;2023-12-04T11:26:23;97267.19;;;0.36;62.57
72038;BME280;59900;50.788;12.904;2023-12-04T11:28:50;97259.97;;;0.39;62.89
72038;BME280;59900;50.788;12.904;2023-12-04T11:31:16;97249.75;;;0.47;62.64
72038;BME280;59900;50.788;12.904;2023-12-04T11:33:41;97249.88;;;0.55;62.11
72038;BME280;59900;50.788;12.904;2023-12-04T11:36:13;97250.53;;;0.57;63.20
72038;BME280;59900;50.788;12.904;2023-12-04T11:38:46;97253.38;;;0.64;62.76
72038;BME280;59900;50.788;12.904;2023-12-04T11:41:24;97242.88;;;0.75;63.43
72038;BME280;59900;50.788;12.904;2023-12-04T11:43:50;97241.03;;;0.85;63.30
72038;BME280;59900;50.788;12.904;2023-12-04T11:46:20;97241.84;;;0.86;62.09
72038;BME280;59900;50.788;12.904;2023-12-04T11:48:48;97243.91;;;0.82;61.43
72038;BME280;59900;50.788;12.904;2023-12-04T11:51:18;97241.63;;;0.79;61.51
72038;BME280;59900;50.788;12.904;2023-12-04T11:54:00;97229.19;;;0.83;62.07
72038;BME280;59900;50.788;12.904;2023-12-04T11:56:25;97232.34;;;0.77;60.74
72038;BME280;59900;50.788;12.904;2023-12-04T11:58:50;97235.09;;;0.75;60.18
72038;BME280;59900;50.788;12.904;2023-12-04T12:01:20;97221.72;;;0.80;61.35
72038;BME280;59900;50.788;12.904;2023-12-04T12:03:50;97226.63;;;0.83;61.23
72038;BME280;59900;50.788;12.904;2023-12-04T12:06:15;97237.38;;;0.88;60.83
72038;BME280;59900;50.788;12.904;2023-12-04T12:08:40;97227.88;;;0.79;60.44
72038;BME280;59900;50.788;12.904;2023-12-04T12:11:06;97219.31;;;0.78;60.92
72038;BME280;59900;50.788;12.904;2023-12-04T12:13:31;97214.94;;;0.79;61.26
72038;BME280;59900;50.788;12.904;2023-12-04T12:15:56;97216.72;;;0.78;61.47
72038;BME280;59900;50.788;12.904;2023-12-04T12:18:23;97214.94;;;0.79;61.09
72038;BME280;59900;50.788;12.904;2023-12-04T12:20:48;97213.88;;;0.72;60.32
72038;BME280;59900;50.788;12.904;2023-12-04T12:23:14;97217.28;;;0.72;60.61
72038;BME280;59900;50.788;12.904;2023-12-04T12:25:40;97213.63;;;0.65;60.18
72038;BME280;59900;50.788;12.904;2023-12-04T12:28:05;97210.00;;;0.58;60.04
72038;BME280;59900;50.788;12.904;2023-12-04T12:30:30;97202.38;;;0.56;60.16
72038;BME280;59900;50.788;12.904;2023-12-04T12:32:56;97190.91;;;0.59;60.35
72038;BME280;59900;50.788;12.904;2023-12-04T12:35:21;97186.97;;;0.65;60.45
72038;BME280;59900;50.788;12.904;2023-12-04T12:37:46;97190.06;;;0.68;60.32
72038;BME280;59900;50.788;12.904;2023-12-04T12:40:12;97183.94;;;0.69;59.43
72038;BME280;59900;50.788;12.904;2023-12-04T12:42:37;97179.03;;;0.76;61.08
72038;BME280;59900;50.788;12.904;2023-12-04T12:45:09;97169.09;;;0.71;59.48
72038;BME280;59900;50.788;12.904;2023-12-04T12:47:36;97162.44;;;0.69;58.88